sensor_id;sensor_type;location;lat;lon;timestamp;P1;durP1;ratioP1;P2;durP2;ratioP2
58222;SDS011;44020;50.890;15.796;2023-07-13T00:01:55;9.10;;;4.70;;
58222;SDS011;44020;50.890;15.796;2023-07-13T00:04:23;7.00;;;4.60;;
58222;SDS011;44020;50.890;15.796;2023-07-13T00:06:52;6.90;;;4.10;;
58222;SDS011;44020;50.890;15.796;2023-07-13T00:09:20;5.20;;;4.70;;
58222;SDS011;44020;50.890;15.796;2023-07-13T00:11:54;5.90;;;4.60;;
58222;SDS011;44020;50.890;15.796;2023-07-13T00:14:23;6.70;;;4.50;;
58222;SDS011;44020;50.890;15.796;2023-07-13T00:16:52;5.90;;;4.40;;
58222;SDS011;44020;50.890;15.796;2023-07-13T00:19:23;8.40;;;4.40;;
58222;SDS011;44020;50.890;15.796;2023-07-13T00:21:51;10.00;;;4.70;;
58222;SDS011;44020;50.890;15.796;2023-07-13T00:24:22;4.20;;;3.80;;
58222;SDS011;44020;50.890;15.796;2023-07-13T00:26:50;7.60;;;4.00;;
58222;SDS011;44020;50.890;15.796;2023-07-13T00:29:17;6.20;;;3.90;;
58222;SDS011;44020;50.890;15.796;2023-07-13T00:31:45;9.60;;;3.90;;
58222;SDS011;44020;50.890;15.796;2023-07-13T00:34:12;5.20;;;3.80;;
58222;SDS011;44020;50.890;15.796;2023-07-13T00:36:40;6.10;;;4.10;;
58222;SDS011;44020;50.890;15.796;2023-07-13T00:39:07;6.90;;;4.20;;
58222;SDS011;44020;50.890;15.796;2023-07-13T00:41:35;6.60;;;4.30;;
58222;SDS011;44020;50.890;15.796;2023-07-13T00:44:03;9.50;;;4.50;;
58222;SDS011;44020;50.890;15.796;2023-07-13T00:46:32;7.30;;;4.50;;
58222;SDS011;44020;50.890;15.796;2023-07-13T00:49:02;10.60;;;4.60;;
58222;SDS011;44020;50.890;15.796;2023-07-13T00:51:37;5.90;;;4.10;;
58222;SDS011;44020;50.890;15.796;2023-07-13T00:54:09;9.60;;;4.50;;
58222;SDS011;44020;50.890;15.796;2023-07-13T00:56:41;6.50;;;4.20;;
58222;SDS011;44020;50.890;15.796;2023-07-13T00:59:12;6.50;;;4.60;;
58222;SDS011;44020;50.890;15.796;2023-07-13T01:01:42;11.30;;;5.00;;
58222;SDS011;44020;50.890;15.796;2023-07-13T01:04:09;5.20;;;4.70;;
58222;SDS011;44020;50.890;15.796;2023-07-13T01:06:37;9.20;;;5.10;;
58222;SDS011;44020;50.890;15.796;2023-07-13T01:09:06;7.50;;;4.70;;
58222;SDS011;44020;50.890;15.796;2023-07-13T01:11:34;8.30;;;4.80;;
58222;SDS011;44020;50.890;15.796;2023-07-13T01:14:02;6.40;;;4.80;;
58222;SDS011;44020;50.890;15.796;2023-07-13T01:16:31;8.20;;;5.10;;
58222;SDS011;44020;50.890;15.796;2023-07-13T01:18:59;8.50;;;4.70;;
58222;SDS011;44020;50.890;15.796;2023-07-13T01:21:28;11.80;;;5.10;;
58222;SDS011;44020;50.890;15.796;2023-07-13T01:23:59;9.70;;;5.00;;
58222;SDS011;44020;50.890;15.796;2023-07-13T01:26:26;6.90;;;5.20;;
58222;SDS011;44020;50.890;15.796;2023-07-13T01:28:53;6.40;;;4.60;;
58222;SDS011;44020;50.890;15.796;2023-07-13T01:31:23;9.90;;;5.70;;
58222;SDS011;44020;50.890;15.796;2023-07-13T01:33:50;7.20;;;5.40;;
58222;SDS011;44020;50.890;15.796;2023-07-13T01:36:18;9.10;;;5.30;;
58222;SDS011;44020;50.890;15.796;2023-07-13T01:38:47;8.10;;;4.70;;
58222;SDS011;44020;50.890;15.796;2023-07-13T01:41:14;6.50;;;4.20;;
58222;SDS011;44020;50.890;15.796;2023-07-13T01:43:41;7.80;;;4.60;;
58222;SDS011;44020;50.890;15.796;2023-07-13T01:46:09;6.60;;;4.70;;
58222;SDS011;44020;50.890;15.796;2023-07-13T01:48:36;8.50;;;4.50;;
58222;SDS011;44020;50.890;15.796;2023-07-13T01:51:03;8.20;;;5.00;;
58222;SDS011;44020;50.890;15.796;2023-07-13T01:53:30;9.50;;;4.80;;
58222;SDS011;44020;50.890;15.796;2023-07-13T01:55:57;6.40;;;4.70;;
58222;SDS011;44020;50.890;15.796;2023-07-13T01:58:24;6.90;;;4.40;;
58222;SDS011;44020;50.890;15.796;2023-07-13T02:00:52;9.60;;;4.30;;
58222;SDS011;44020;50.890;15.796;2023-07-13T02:03:19;10.30;;;4.40;;
58222;SDS011;44020;50.890;15.796;2023-07-13T02:05:46;8.20;;;4.60;;
58222;SDS011;44020;50.890;15.796;2023-07-13T02:08:13;12.30;;;4.60;;
58222;SDS011;44020;50.890;15.796;2023-07-13T02:10:40;9.70;;;4.50;;
58222;SDS011;44020;50.890;15.796;2023-07-13T02:13:07;11.00;;;4.60;;
58222;SDS011;44020;50.890;15.796;2023-07-13T02:15:37;12.00;;;4.10;;
58222;SDS011;44020;50.890;15.796;2023-07-13T02:18:06;11.50;;;4.10;;
58222;SDS011;44020;50.890;15.796;2023-07-13T02:20:33;9.20;;;4.50;;
58222;SDS011;44020;50.890;15.796;2023-07-13T02:23:00;7.40;;;3.90;;
58222;SDS011;44020;50.890;15.796;2023-07-13T02:25:28;12.00;;;5.00;;
58222;SDS011;44020;50.890;15.796;2023-07-13T02:27:55;9.20;;;4.70;;
58222;SDS011;44020;50.890;15.796;2023-07-13T02:30:22;10.00;;;5.30;;
58222;SDS011;44020;50.890;15.796;2023-07-13T02:32:51;8.50;;;5.10;;
58222;SDS011;44020;50.890;15.796;2023-07-13T02:35:18;13.00;;;5.30;;
58222;SDS011;44020;50.890;15.796;2023-07-13T02:37:45;9.10;;;4.90;;
58222;SDS011;44020;50.890;15.796;2023-07-13T02:40:12;9.80;;;5.50;;
58222;SDS011;44020;50.890;15.796;2023-07-13T02:42:40;6.90;;;5.50;;
58222;SDS011;44020;50.890;15.796;2023-07-13T02:52:07;6.70;;;3.80;;
58222;SDS011;44020;50.890;15.796;2023-07-13T02:54:34;6.60;;;3.40;;
58222;SDS011;44020;50.890;15.796;2023-07-13T02:57:01;8.30;;;3.70;;
58222;SDS011;44020;50.890;15.796;2023-07-13T02:59:28;11.60;;;3.60;;
58222;SDS011;44020;50.890;15.796;2023-07-13T03:01:55;5.70;;;3.40;;
58222;SDS011;44020;50.890;15.796;2023-07-13T03:04:22;7.40;;;3.50;;
58222;SDS011;44020;50.890;15.796;2023-07-13T03:06:50;5.60;;;3.30;;
58222;SDS011;44020;50.890;15.796;2023-07-13T03:09:17;8.40;;;3.40;;
58222;SDS011;44020;50.890;15.796;2023-07-13T03:11:44;7.00;;;3.70;;
58222;SDS011;44020;50.890;15.796;2023-07-13T03:14:11;5.10;;;3.00;;
58222;SDS011;44020;50.890;15.796;2023-07-13T03:16:39;7.90;;;3.20;;
58222;SDS011;44020;50.890;15.796;2023-07-13T03:19:06;7.00;;;2.90;;
58222;SDS011;44020;50.890;15.796;2023-07-13T03:21:33;4.90;;;3.10;;
58222;SDS011;44020;50.890;15.796;2023-07-13T03:24:01;6.30;;;3.10;;
58222;SDS011;44020;50.890;15.796;2023-07-13T03:26:29;5.10;;;3.10;;
58222;SDS011;44020;50.890;15.796;2023-07-13T03:28:56;5.60;;;3.10;;
58222;SDS011;44020;50.890;15.796;2023-07-13T03:31:25;5.40;;;3.00;;
58222;SDS011;44020;50.890;15.796;2023-07-13T03:33:55;4.90;;;3.60;;
58222;SDS011;44020;50.890;15.796;2023-07-13T03:36:25;5.40;;;3.20;;
58222;SDS011;44020;50.890;15.796;2023-07-13T03:38:55;6.40;;;3.10;;
58222;SDS011;44020;50.890;15.796;2023-07-13T03:41:24;7.40;;;3.30;;
58222;SDS011;44020;50.890;15.796;2023-07-13T03:43:52;4.90;;;2.90;;
58222;SDS011;44020;50.890;15.796;2023-07-13T03:46:19;4.90;;;3.00;;
58222;SDS011;44020;50.890;15.796;2023-07-13T03:48:47;4.80;;;2.40;;
58222;SDS011;44020;50.890;15.796;2023-07-13T03:51:14;4.00;;;2.70;;
58222;SDS011;44020;50.890;15.796;2023-07-13T03:53:43;5.70;;;2.90;;
58222;SDS011;44020;50.890;15.796;2023-07-13T03:56:13;4.10;;;2.50;;
58222;SDS011;44020;50.890;15.796;2023-07-13T03:58:42;5.50;;;2.50;;
58222;SDS011;44020;50.890;15.796;2023-07-13T04:01:11;5.10;;;2.80;;
58222;SDS011;44020;50.890;15.796;2023-07-13T04:03:39;3.90;;;2.50;;
58222;SDS011;44020;50.890;15.796;2023-07-13T04:06:08;3.90;;;2.80;;
58222;SDS011;44020;50.890;15.796;2023-07-13T04:08:42;2.90;;;2.50;;
58222;SDS011;44020;50.890;15.796;2023-07-13T04:11:09;4.20;;;2.70;;
58222;SDS011;44020;50.890;15.796;2023-07-13T04:13:36;4.60;;;2.90;;
58222;SDS011;44020;50.890;15.796;2023-07-13T04:16:04;5.50;;;2.60;;
58222;SDS011;44020;50.890;15.796;2023-07-13T04:18:31;4.20;;;2.90;;
58222;SDS011;44020;50.890;15.796;2023-07-13T04:20:57;4.80;;;2.50;;
58222;SDS011;44020;50.890;15.796;2023-07-13T04:23:25;3.70;;;2.60;;
58222;SDS011;44020;50.890;15.796;2023-07-13T04:25:52;4.20;;;2.60;;
58222;SDS011;44020;50.890;15.796;2023-07-13T04:28:23;4.20;;;2.80;;
58222;SDS011;44020;50.890;15.796;2023-07-13T04:30:51;4.60;;;2.40;;
58222;SDS011;44020;50.890;15.796;2023-07-13T04:33:19;3.10;;;2.40;;
58222;SDS011;44020;50.890;15.796;2023-07-13T04:35:49;4.60;;;2.60;;
58222;SDS011;44020;50.890;15.796;2023-07-13T04:38:21;8.60;;;2.80;;
58222;SDS011;44020;50.890;15.796;2023-07-13T04:40:51;4.40;;;2.50;;
58222;SDS011;44020;50.890;15.796;2023-07-13T04:43:18;6.20;;;2.70;;
58222;SDS011;44020;50.890;15.796;2023-07-13T04:45:45;3.70;;;2.80;;
58222;SDS011;44020;50.890;15.796;2023-07-13T04:48:12;5.30;;;2.80;;
58222;SDS011;44020;50.890;15.796;2023-07-13T04:50:39;4.10;;;3.00;;
58222;SDS011;44020;50.890;15.796;2023-07-13T04:53:06;4.60;;;2.60;;
58222;SDS011;44020;50.890;15.796;2023-07-13T04:55:34;7.10;;;2.80;;
58222;SDS011;44020;50.890;15.796;2023-07-13T04:58:01;3.70;;;2.50;;
58222;SDS011;44020;50.890;15.796;2023-07-13T05:00:29;3.90;;;2.50;;
58222;SDS011;44020;50.890;15.796;2023-07-13T05:02:56;6.10;;;3.00;;
58222;SDS011;44020;50.890;15.796;2023-07-13T05:05:25;4.90;;;3.30;;
58222;SDS011;44020;50.890;15.796;2023-07-13T05:07:53;6.90;;;3.90;;
58222;SDS011;44020;50.890;15.796;2023-07-13T05:10:21;6.00;;;3.70;;
58222;SDS011;44020;50.890;15.796;2023-07-13T05:12:49;7.90;;;4.10;;
58222;SDS011;44020;50.890;15.796;2023-07-13T05:15:16;5.80;;;3.40;;
58222;SDS011;44020;50.890;15.796;2023-07-13T05:17:47;4.80;;;3.30;;
58222;SDS011;44020;50.890;15.796;2023-07-13T05:20:15;5.20;;;3.60;;
58222;SDS011;44020;50.890;15.796;2023-07-13T05:22:44;8.30;;;3.90;;
58222;SDS011;44020;50.890;15.796;2023-07-13T05:25:13;7.70;;;3.90;;
58222;SDS011;44020;50.890;15.796;2023-07-13T05:27:40;6.20;;;3.80;;
58222;SDS011;44020;50.890;15.796;2023-07-13T05:30:08;7.30;;;3.60;;
58222;SDS011;44020;50.890;15.796;2023-07-13T05:32:37;5.70;;;2.80;;
58222;SDS011;44020;50.890;15.796;2023-07-13T05:35:05;7.90;;;3.60;;
58222;SDS011;44020;50.890;15.796;2023-07-13T05:37:32;7.80;;;4.10;;
58222;SDS011;44020;50.890;15.796;2023-07-13T05:39:59;6.80;;;3.30;;
58222;SDS011;44020;50.890;15.796;2023-07-13T05:42:26;3.70;;;2.80;;
58222;SDS011;44020;50.890;15.796;2023-07-13T05:44:54;5.90;;;2.80;;
58222;SDS011;44020;50.890;15.796;2023-07-13T05:47:21;4.30;;;2.70;;
58222;SDS011;44020;50.890;15.796;2023-07-13T05:49:48;6.80;;;2.80;;
58222;SDS011;44020;50.890;15.796;2023-07-13T05:52:15;11.40;;;3.30;;
58222;SDS011;44020;50.890;15.796;2023-07-13T05:54:42;5.30;;;3.10;;
58222;SDS011;44020;50.890;15.796;2023-07-13T05:57:09;5.50;;;3.20;;
58222;SDS011;44020;50.890;15.796;2023-07-13T05:59:36;7.20;;;4.50;;
58222;SDS011;44020;50.890;15.796;2023-07-13T06:02:03;10.20;;;5.10;;
58222;SDS011;44020;50.890;15.796;2023-07-13T06:04:31;5.80;;;3.30;;
58222;SDS011;44020;50.890;15.796;2023-07-13T06:06:58;6.60;;;3.40;;
58222;SDS011;44020;50.890;15.796;2023-07-13T06:09:25;5.40;;;3.80;;
58222;SDS011;44020;50.890;15.796;2023-07-13T06:11:52;5.80;;;3.50;;
58222;SDS011;44020;50.890;15.796;2023-07-13T06:14:19;5.40;;;3.70;;
58222;SDS011;44020;50.890;15.796;2023-07-13T06:16:46;5.10;;;3.80;;
58222;SDS011;44020;50.890;15.796;2023-07-13T06:19:13;5.20;;;3.60;;
58222;SDS011;44020;50.890;15.796;2023-07-13T06:21:40;5.70;;;4.00;;
58222;SDS011;44020;50.890;15.796;2023-07-13T06:24:07;8.40;;;4.10;;
58222;SDS011;44020;50.890;15.796;2023-07-13T06:26:34;8.80;;;3.50;;
58222;SDS011;44020;50.890;15.796;2023-07-13T06:29:01;3.80;;;3.20;;
58222;SDS011;44020;50.890;15.796;2023-07-13T06:31:29;5.60;;;3.70;;
58222;SDS011;44020;50.890;15.796;2023-07-13T06:33:56;3.90;;;3.50;;
58222;SDS011;44020;50.890;15.796;2023-07-13T06:36:23;8.40;;;3.10;;
58222;SDS011;44020;50.890;15.796;2023-07-13T06:38:50;3.90;;;3.10;;
58222;SDS011;44020;50.890;15.796;2023-07-13T06:41:17;5.70;;;3.10;;
58222;SDS011;44020;50.890;15.796;2023-07-13T06:43:44;3.20;;;2.90;;
58222;SDS011;44020;50.890;15.796;2023-07-13T06:46:11;5.50;;;2.90;;
58222;SDS011;44020;50.890;15.796;2023-07-13T06:48:38;4.20;;;2.90;;
58222;SDS011;44020;50.890;15.796;2023-07-13T06:51:05;3.90;;;2.70;;
58222;SDS011;44020;50.890;15.796;2023-07-13T06:53:32;5.10;;;2.60;;
58222;SDS011;44020;50.890;15.796;2023-07-13T06:55:59;3.10;;;2.50;;
58222;SDS011;44020;50.890;15.796;2023-07-13T06:58:26;4.50;;;2.80;;
58222;SDS011;44020;50.890;15.796;2023-07-13T07:00:53;3.90;;;2.80;;
58222;SDS011;44020;50.890;15.796;2023-07-13T07:03:20;5.00;;;3.10;;
58222;SDS011;44020;50.890;15.796;2023-07-13T07:05:47;5.30;;;2.90;;
58222;SDS011;44020;50.890;15.796;2023-07-13T07:08:14;5.90;;;3.20;;
58222;SDS011;44020;50.890;15.796;2023-07-13T07:10:41;4.80;;;2.70;;
58222;SDS011;44020;50.890;15.796;2023-07-13T07:13:09;3.70;;;2.60;;
58222;SDS011;44020;50.890;15.796;2023-07-13T07:15:36;6.70;;;3.20;;
58222;SDS011;44020;50.890;15.796;2023-07-13T07:18:03;3.50;;;2.90;;
58222;SDS011;44020;50.890;15.796;2023-07-13T07:20:30;5.90;;;2.80;;
58222;SDS011;44020;50.890;15.796;2023-07-13T07:22:59;4.30;;;2.60;;
58222;SDS011;44020;50.890;15.796;2023-07-13T07:25:26;3.70;;;2.50;;
58222;SDS011;44020;50.890;15.796;2023-07-13T07:27:53;3.00;;;2.30;;
58222;SDS011;44020;50.890;15.796;2023-07-13T07:30:20;3.90;;;2.10;;
58222;SDS011;44020;50.890;15.796;2023-07-13T07:32:47;4.00;;;2.30;;
58222;SDS011;44020;50.890;15.796;2023-07-13T07:35:14;2.70;;;2.20;;
58222;SDS011;44020;50.890;15.796;2023-07-13T07:37:41;3.50;;;2.10;;
58222;SDS011;44020;50.890;15.796;2023-07-13T07:40:08;4.10;;;2.60;;
58222;SDS011;44020;50.890;15.796;2023-07-13T07:42:35;4.30;;;2.60;;
58222;SDS011;44020;50.890;15.796;2023-07-13T07:45:02;3.30;;;2.30;;
58222;SDS011;44020;50.890;15.796;2023-07-13T07:47:30;3.20;;;2.20;;
58222;SDS011;44020;50.890;15.796;2023-07-13T07:49:57;4.40;;;2.40;;
58222;SDS011;44020;50.890;15.796;2023-07-13T07:52:24;4.10;;;2.50;;
58222;SDS011;44020;50.890;15.796;2023-07-13T07:54:51;2.40;;;1.90;;
58222;SDS011;44020;50.890;15.796;2023-07-13T07:57:18;3.40;;;2.10;;
58222;SDS011;44020;50.890;15.796;2023-07-13T07:59:46;2.20;;;1.90;;
58222;SDS011;44020;50.890;15.796;2023-07-13T08:02:13;2.30;;;2.00;;
58222;SDS011;44020;50.890;15.796;2023-07-13T08:04:40;2.90;;;1.90;;
58222;SDS011;44020;50.890;15.796;2023-07-13T08:07:07;3.40;;;2.10;;
58222;SDS011;44020;50.890;15.796;2023-07-13T08:09:34;3.70;;;2.50;;
58222;SDS011;44020;50.890;15.796;2023-07-13T08:12:02;4.80;;;2.80;;
58222;SDS011;44020;50.890;15.796;2023-07-13T08:14:29;3.10;;;2.50;;
58222;SDS011;44020;50.890;15.796;2023-07-13T08:16:56;2.80;;;2.30;;
58222;SDS011;44020;50.890;15.796;2023-07-13T08:19:23;2.40;;;2.20;;
58222;SDS011;44020;50.890;15.796;2023-07-13T08:21:50;3.10;;;2.30;;
58222;SDS011;44020;50.890;15.796;2023-07-13T08:24:17;2.00;;;1.80;;
58222;SDS011;44020;50.890;15.796;2023-07-13T08:26:45;4.70;;;2.50;;
58222;SDS011;44020;50.890;15.796;2023-07-13T08:29:12;2.40;;;1.90;;
58222;SDS011;44020;50.890;15.796;2023-07-13T08:31:39;2.00;;;1.80;;
58222;SDS011;44020;50.890;15.796;2023-07-13T08:34:06;3.40;;;2.20;;
58222;SDS011;44020;50.890;15.796;2023-07-13T08:36:34;2.50;;;2.20;;
58222;SDS011;44020;50.890;15.796;2023-07-13T08:39:01;3.80;;;2.10;;
58222;SDS011;44020;50.890;15.796;2023-07-13T08:41:28;3.00;;;2.00;;
58222;SDS011;44020;50.890;15.796;2023-07-13T08:43:56;2.30;;;1.90;;
58222;SDS011;44020;50.890;15.796;2023-07-13T08:46:27;2.00;;;1.70;;
58222;SDS011;44020;50.890;15.796;2023-07-13T08:49:13;2.30;;;2.00;;
58222;SDS011;44020;50.890;15.796;2023-07-13T08:54:32;2.20;;;1.90;;
58222;SDS011;44020;50.890;15.796;2023-07-13T08:57:05;3.60;;;2.20;;
58222;SDS011;44020;50.890;15.796;2023-07-13T08:59:39;2.50;;;1.80;;
58222;SDS011;44020;50.890;15.796;2023-07-13T09:04:42;6.20;;;1.80;;
58222;SDS011;44020;50.890;15.796;2023-07-13T09:10:31;3.40;;;1.80;;
58222;SDS011;44020;50.890;15.796;2023-07-13T09:13:07;2.90;;;1.60;;
58222;SDS011;44020;50.890;15.796;2023-07-13T09:15:45;3.60;;;1.90;;
58222;SDS011;44020;50.890;15.796;2023-07-13T09:20:59;2.50;;;1.70;;
58222;SDS011;44020;50.890;15.796;2023-07-13T09:23:29;3.40;;;2.20;;
58222;SDS011;44020;50.890;15.796;2023-07-13T09:26:05;3.60;;;1.80;;
58222;SDS011;44020;50.890;15.796;2023-07-13T09:28:45;2.40;;;1.60;;
58222;SDS011;44020;50.890;15.796;2023-07-13T09:31:15;2.50;;;1.60;;
58222;SDS011;44020;50.890;15.796;2023-07-13T09:33:42;2.60;;;1.50;;
58222;SDS011;44020;50.890;15.796;2023-07-13T09:36:23;2.20;;;1.40;;
58222;SDS011;44020;50.890;15.796;2023-07-13T09:44:15;1.30;;;1.10;;
58222;SDS011;44020;50.890;15.796;2023-07-13T09:46:45;1.30;;;1.20;;
58222;SDS011;44020;50.890;15.796;2023-07-13T09:49:24;2.80;;;1.40;;
58222;SDS011;44020;50.890;15.796;2023-07-13T09:52:00;2.10;;;1.40;;
58222;SDS011;44020;50.890;15.796;2023-07-13T09:54:32;2.30;;;1.30;;
58222;SDS011;44020;50.890;15.796;2023-07-13T09:57:01;1.30;;;1.10;;
58222;SDS011;44020;50.890;15.796;2023-07-13T09:59:32;1.50;;;1.00;;
58222;SDS011;44020;50.890;15.796;2023-07-13T10:02:00;1.40;;;1.00;;
58222;SDS011;44020;50.890;15.796;2023-07-13T10:04:30;4.70;;;1.20;;
58222;SDS011;44020;50.890;15.796;2023-07-13T10:07:08;1.70;;;1.10;;
58222;SDS011;44020;50.890;15.796;2023-07-13T10:09:39;1.80;;;1.30;;
58222;SDS011;44020;50.890;15.796;2023-07-13T10:12:13;1.50;;;1.10;;
58222;SDS011;44020;50.890;15.796;2023-07-13T10:14:41;1.30;;;0.80;;
58222;SDS011;44020;50.890;15.796;2023-07-13T10:17:10;1.80;;;1.00;;
58222;SDS011;44020;50.890;15.796;2023-07-13T10:19:41;4.20;;;1.30;;
58222;SDS011;44020;50.890;15.796;2023-07-13T10:25:18;3.10;;;0.90;;
58222;SDS011;44020;50.890;15.796;2023-07-13T10:27:50;1.80;;;1.20;;
58222;SDS011;44020;50.890;15.796;2023-07-13T10:30:21;1.70;;;1.20;;
58222;SDS011;44020;50.890;15.796;2023-07-13T10:32:59;3.20;;;1.20;;
58222;SDS011;44020;50.890;15.796;2023-07-13T10:35:29;1.50;;;1.00;;
58222;SDS011;44020;50.890;15.796;2023-07-13T10:38:01;2.00;;;1.10;;
58222;SDS011;44020;50.890;15.796;2023-07-13T10:40:34;3.10;;;1.30;;
58222;SDS011;44020;50.890;15.796;2023-07-13T10:43:07;3.80;;;1.30;;
58222;SDS011;44020;50.890;15.796;2023-07-13T10:45:40;3.80;;;1.20;;
58222;SDS011;44020;50.890;15.796;2023-07-13T10:48:09;2.70;;;1.30;;
58222;SDS011;44020;50.890;15.796;2023-07-13T10:53:17;3.00;;;1.50;;
58222;SDS011;44020;50.890;15.796;2023-07-13T10:58:34;1.80;;;1.10;;
58222;SDS011;44020;50.890;15.796;2023-07-13T11:09:36;3.40;;;1.30;;
58222;SDS011;44020;50.890;15.796;2023-07-13T11:12:08;2.50;;;1.40;;
58222;SDS011;44020;50.890;15.796;2023-07-13T11:14:43;1.80;;;1.60;;
58222;SDS011;44020;50.890;15.796;2023-07-13T11:20:10;3.20;;;1.70;;
58222;SDS011;44020;50.890;15.796;2023-07-13T11:22:48;7.40;;;1.40;;
58222;SDS011;44020;50.890;15.796;2023-07-13T11:25:36;2.50;;;1.20;;
58222;SDS011;44020;50.890;15.796;2023-07-13T11:30:46;2.80;;;1.60;;
58222;SDS011;44020;50.890;15.796;2023-07-13T11:33:47;2.80;;;1.50;;
58222;SDS011;44020;50.890;15.796;2023-07-13T11:36:19;2.30;;;1.50;;
58222;SDS011;44020;50.890;15.796;2023-07-13T11:39:03;3.90;;;1.70;;
58222;SDS011;44020;50.890;15.796;2023-07-13T11:41:49;1.90;;;1.20;;
58222;SDS011;44020;50.890;15.796;2023-07-13T11:44:20;1.80;;;1.30;;
58222;SDS011;44020;50.890;15.796;2023-07-13T11:46:50;5.00;;;2.40;;
58222;SDS011;44020;50.890;15.796;2023-07-13T11:49:19;2.70;;;1.50;;
58222;SDS011;44020;50.890;15.796;2023-07-13T11:51:47;2.60;;;1.20;;
58222;SDS011;44020;50.890;15.796;2023-07-13T11:56:50;2.00;;;1.10;;
58222;SDS011;44020;50.890;15.796;2023-07-13T11:59:17;3.60;;;1.30;;
58222;SDS011;44020;50.890;15.796;2023-07-13T12:01:46;3.00;;;1.20;;
58222;SDS011;44020;50.890;15.796;2023-07-13T12:04:21;5.20;;;1.30;;
58222;SDS011;44020;50.890;15.796;2023-07-13T12:09:41;2.70;;;1.20;;
58222;SDS011;44020;50.890;15.796;2023-07-13T12:12:12;3.30;;;1.10;;
58222;SDS011;44020;50.890;15.796;2023-07-13T12:14:41;3.80;;;1.50;;
58222;SDS011;44020;50.890;15.796;2023-07-13T12:17:15;1.80;;;1.20;;
58222;SDS011;44020;50.890;15.796;2023-07-13T12:19:48;1.60;;;1.20;;
58222;SDS011;44020;50.890;15.796;2023-07-13T12:22:17;2.20;;;1.20;;
58222;SDS011;44020;50.890;15.796;2023-07-13T12:24:46;3.30;;;1.10;;
58222;SDS011;44020;50.890;15.796;2023-07-13T12:27:19;3.00;;;1.10;;
58222;SDS011;44020;50.890;15.796;2023-07-13T12:30:00;2.30;;;1.10;;
58222;SDS011;44020;50.890;15.796;2023-07-13T12:35:15;2.30;;;0.90;;
58222;SDS011;44020;50.890;15.796;2023-07-13T12:37:46;2.30;;;1.10;;
58222;SDS011;44020;50.890;15.796;2023-07-13T12:40:15;3.70;;;1.30;;
58222;SDS011;44020;50.890;15.796;2023-07-13T12:42:46;1.80;;;0.90;;
58222;SDS011;44020;50.890;15.796;2023-07-13T12:48:37;3.00;;;1.20;;
58222;SDS011;44020;50.890;15.796;2023-07-13T12:50:45;3.60;;;1.00;;
58222;SDS011;44020;50.890;15.796;2023-07-13T12:53:15;2.00;;;1.20;;
58222;SDS011;44020;50.890;15.796;2023-07-13T12:55:50;2.80;;;1.20;;
58222;SDS011;44020;50.890;15.796;2023-07-13T12:58:24;1.80;;;1.20;;
58222;SDS011;44020;50.890;15.796;2023-07-13T13:00:54;2.00;;;1.20;;
58222;SDS011;44020;50.890;15.796;2023-07-13T13:03:31;1.90;;;1.10;;
58222;SDS011;44020;50.890;15.796;2023-07-13T13:06:02;2.00;;;1.10;;
58222;SDS011;44020;50.890;15.796;2023-07-13T13:08:32;2.20;;;1.10;;
58222;SDS011;44020;50.890;15.796;2023-07-13T13:11:02;3.80;;;1.50;;
58222;SDS011;44020;50.890;15.796;2023-07-13T13:13:29;2.60;;;1.10;;
58222;SDS011;44020;50.890;15.796;2023-07-13T13:16:01;2.30;;;1.30;;
58222;SDS011;44020;50.890;15.796;2023-07-13T13:18:40;3.70;;;1.50;;
58222;SDS011;44020;50.890;15.796;2023-07-13T13:21:08;3.20;;;1.20;;
58222;SDS011;44020;50.890;15.796;2023-07-13T13:23:36;3.10;;;1.30;;
58222;SDS011;44020;50.890;15.796;2023-07-13T13:26:07;1.90;;;1.00;;
58222;SDS011;44020;50.890;15.796;2023-07-13T13:28:37;3.30;;;1.10;;
58222;SDS011;44020;50.890;15.796;2023-07-13T13:31:04;2.30;;;0.90;;
58222;SDS011;44020;50.890;15.796;2023-07-13T13:33:31;3.30;;;1.10;;
58222;SDS011;44020;50.890;15.796;2023-07-13T13:35:59;4.20;;;1.10;;
58222;SDS011;44020;50.890;15.796;2023-07-13T13:38:27;4.00;;;1.20;;
58222;SDS011;44020;50.890;15.796;2023-07-13T13:40:54;2.90;;;1.00;;
58222;SDS011;44020;50.890;15.796;2023-07-13T13:43:23;1.70;;;1.00;;
58222;SDS011;44020;50.890;15.796;2023-07-13T13:45:55;3.00;;;0.90;;
58222;SDS011;44020;50.890;15.796;2023-07-13T13:48:34;2.50;;;1.20;;
58222;SDS011;44020;50.890;15.796;2023-07-13T13:51:06;2.70;;;1.10;;
58222;SDS011;44020;50.890;15.796;2023-07-13T13:53:47;4.80;;;1.20;;
58222;SDS011;44020;50.890;15.796;2023-07-13T13:56:15;2.70;;;1.00;;
58222;SDS011;44020;50.890;15.796;2023-07-13T13:58:44;2.20;;;1.20;;
58222;SDS011;44020;50.890;15.796;2023-07-13T14:01:19;2.50;;;1.10;;
58222;SDS011;44020;50.890;15.796;2023-07-13T14:03:47;3.50;;;1.10;;
58222;SDS011;44020;50.890;15.796;2023-07-13T14:06:20;1.80;;;0.90;;
58222;SDS011;44020;50.890;15.796;2023-07-13T14:08:47;3.60;;;1.10;;
58222;SDS011;44020;50.890;15.796;2023-07-13T14:11:16;2.10;;;1.00;;
58222;SDS011;44020;50.890;15.796;2023-07-13T14:13:50;2.90;;;1.40;;
58222;SDS011;44020;50.890;15.796;2023-07-13T14:16:22;3.50;;;1.20;;
58222;SDS011;44020;50.890;15.796;2023-07-13T14:18:54;1.80;;;1.10;;
58222;SDS011;44020;50.890;15.796;2023-07-13T14:21:25;3.60;;;1.30;;
58222;SDS011;44020;50.890;15.796;2023-07-13T14:23:53;3.50;;;1.20;;
58222;SDS011;44020;50.890;15.796;2023-07-13T14:26:21;2.80;;;1.50;;
58222;SDS011;44020;50.890;15.796;2023-07-13T14:28:52;2.00;;;1.20;;
58222;SDS011;44020;50.890;15.796;2023-07-13T14:31:21;2.40;;;1.30;;
58222;SDS011;44020;50.890;15.796;2023-07-13T14:33:50;3.20;;;1.50;;
58222;SDS011;44020;50.890;15.796;2023-07-13T14:38:50;2.40;;;1.00;;
58222;SDS011;44020;50.890;15.796;2023-07-13T14:41:17;2.80;;;1.10;;
58222;SDS011;44020;50.890;15.796;2023-07-13T14:43:44;2.20;;;1.10;;
58222;SDS011;44020;50.890;15.796;2023-07-13T14:46:18;2.90;;;1.00;;
58222;SDS011;44020;50.890;15.796;2023-07-13T14:48:54;2.20;;;1.10;;
58222;SDS011;44020;50.890;15.796;2023-07-13T14:51:40;4.70;;;1.30;;
58222;SDS011;44020;50.890;15.796;2023-07-13T14:54:08;3.60;;;1.30;;
58222;SDS011;44020;50.890;15.796;2023-07-13T14:56:36;1.80;;;1.10;;
58222;SDS011;44020;50.890;15.796;2023-07-13T14:59:04;3.00;;;1.20;;
58222;SDS011;44020;50.890;15.796;2023-07-13T15:01:31;2.90;;;1.00;;
58222;SDS011;44020;50.890;15.796;2023-07-13T15:03:58;3.40;;;1.10;;
58222;SDS011;44020;50.890;15.796;2023-07-13T15:06:25;1.70;;;1.20;;
58222;SDS011;44020;50.890;15.796;2023-07-13T15:08:53;2.70;;;1.30;;
58222;SDS011;44020;50.890;15.796;2023-07-13T15:11:19;3.00;;;1.60;;
58222;SDS011;44020;50.890;15.796;2023-07-13T15:13:46;3.40;;;1.20;;
58222;SDS011;44020;50.890;15.796;2023-07-13T15:16:16;2.90;;;1.40;;
58222;SDS011;44020;50.890;15.796;2023-07-13T15:18:46;2.50;;;1.60;;
58222;SDS011;44020;50.890;15.796;2023-07-13T15:21:16;3.40;;;1.40;;
58222;SDS011;44020;50.890;15.796;2023-07-13T15:23:49;3.20;;;1.20;;
58222;SDS011;44020;50.890;15.796;2023-07-13T15:26:18;3.90;;;1.30;;
58222;SDS011;44020;50.890;15.796;2023-07-13T15:28:46;2.10;;;1.30;;
58222;SDS011;44020;50.890;15.796;2023-07-13T15:31:23;2.30;;;1.20;;
58222;SDS011;44020;50.890;15.796;2023-07-13T15:33:55;5.00;;;1.50;;
58222;SDS011;44020;50.890;15.796;2023-07-13T15:36:24;2.20;;;1.10;;
58222;SDS011;44020;50.890;15.796;2023-07-13T15:38:54;3.50;;;1.30;;
58222;SDS011;44020;50.890;15.796;2023-07-13T15:41:26;3.10;;;1.20;;
58222;SDS011;44020;50.890;15.796;2023-07-13T15:43:56;3.00;;;1.50;;
58222;SDS011;44020;50.890;15.796;2023-07-13T15:46:27;5.10;;;1.10;;